Kamloops Airport

Airport
ICAO code: 
CYKA
Summary
ICAO Region: 
NAM
Territory: 
Location: 
Kamloops, British Columbia,
Coordinates: 
Aerial View: 
50° 42' 7.999" N, 120° 26' 30.998" W
Airport BS: 
Bird Strike
Metar
Observation
CYKA 041600Z 09004KT 2SM -SN OVC010 M03/M04 A3000 RMK SN5SC3 SLP179
Station
Kamloops, B. C.
Date/Time
2021-12-04 16:00:00
Wind direction
90°
Wind speed
04 kts
Lowest cloud amount
overcast
Temperature
-3°C
Dew point
-4°C
Humidity
92%
Weather condition
light snow

Description

Regional airport located near Kamloops, British Columbia.

Climatology

Semi-arid Steppe climate (Köppen climate classification BSk) - Little precipitation, hot summers and cold winters, sometimes with large changes in temperature in a 24 hour period.

Runways

Designator Length Width Surface Rops
4/22 632 15 ASP Yes/Yes
8/26 1829 45 ASP Yes/Yes
Airport map: 
Aerial View: 

SKYbrary Partners:

Safety knowledge contributed by: